createdAt,value
2023-04-18T00:00:13.402Z,33.00
2023-04-18T00:01:15.176Z,29.48
2023-04-18T00:02:19.681Z,29.27
2023-04-18T00:03:21.938Z,29.95
2023-04-18T00:04:24.135Z,28.35
2023-04-18T00:05:26.330Z,24.85
2023-04-18T00:06:30.073Z,28.15
2023-04-18T00:07:31.845Z,24.15
2023-04-18T00:08:34.368Z,23.63
2023-04-18T00:09:36.250Z,24.80
2023-04-18T00:10:38.005Z,22.45
2023-04-18T00:11:39.816Z,24.33
2023-04-18T00:12:41.559Z,24.45
2023-04-18T00:13:43.372Z,24.02
2023-04-18T00:14:45.050Z,22.40
2023-04-18T00:15:46.819Z,22.88
2023-04-18T00:16:48.563Z,22.98
2023-04-18T00:17:50.317Z,20.92
2023-04-18T00:18:52.830Z,25.23
2023-04-18T00:19:56.451Z,20.65
2023-04-18T00:20:58.190Z,22.90
2023-04-18T00:22:00.060Z,25.80
2023-04-18T00:23:01.973Z,19.73
2023-04-18T00:24:03.729Z,22.45
2023-04-18T00:25:05.882Z,26.23
2023-04-18T00:26:07.567Z,24.55
2023-04-18T00:27:09.282Z,29.00
2023-04-18T00:28:11.043Z,22.58
2023-04-18T00:29:12.765Z,23.10
2023-04-18T00:30:14.877Z,21.60
2023-04-18T00:31:16.670Z,27.27
2023-04-18T00:32:18.564Z,24.40
2023-04-18T00:33:20.342Z,24.77
2023-04-18T00:34:22.028Z,34.38
2023-04-18T00:35:23.840Z,27.52
2023-04-18T00:36:27.199Z,28.80
2023-04-18T00:37:29.671Z,30.58
2023-04-18T00:38:31.421Z,29.75
2023-04-18T00:39:35.322Z,22.83
2023-04-18T00:40:37.951Z,31.25
2023-04-18T00:41:39.696Z,24.10
2023-04-18T00:42:41.438Z,24.38
2023-04-18T00:43:43.212Z,23.23
2023-04-18T00:44:44.923Z,24.50
2023-04-18T00:45:46.615Z,25.52
2023-04-18T00:46:48.462Z,22.90
2023-04-18T00:47:50.230Z,24.75
2023-04-18T00:48:52.084Z,28.92
2023-04-18T00:49:54.596Z,26.45
2023-04-18T00:50:56.863Z,22.58
2023-04-18T00:51:59.421Z,25.98
2023-04-18T00:53:01.284Z,20.30
2023-04-18T00:54:07.852Z,26.60
2023-04-18T00:55:10.278Z,22.67
2023-04-18T00:56:12.027Z,21.70
2023-04-18T00:57:13.858Z,28.00
2023-04-18T00:58:16.024Z,25.52
2023-04-18T00:59:17.969Z,20.80
2023-04-18T01:00:19.840Z,27.17
2023-04-18T01:01:22.252Z,22.42
2023-04-18T01:02:26.395Z,23.85
2023-04-18T01:03:28.558Z,26.70
2023-04-18T01:04:32.633Z,20.00
2023-04-18T01:05:36.366Z,24.42
2023-04-18T01:06:38.258Z,23.67
2023-04-18T01:07:42.934Z,24.98
2023-04-18T01:08:45.763Z,22.20
2023-04-18T01:09:47.920Z,20.85
2023-04-18T01:10:50.063Z,21.67
2023-04-18T01:11:51.923Z,24.58
2023-04-18T01:13:12.785Z,20.58
2023-04-18T01:14:14.788Z,19.98
2023-04-18T01:15:16.827Z,21.77
2023-04-18T01:16:18.571Z,21.27
2023-04-18T01:17:20.614Z,21.60
2023-04-18T01:18:22.696Z,17.63
2023-04-18T01:19:24.691Z,17.05
2023-04-18T01:20:26.540Z,16.77
2023-04-18T01:21:31.408Z,19.00
2023-04-18T01:22:33.609Z,21.20
2023-04-18T01:23:35.696Z,21.10
2023-04-18T01:24:37.444Z,23.77
2023-04-18T01:25:39.482Z,25.38
2023-04-18T01:26:43.707Z,20.65
2023-04-18T01:27:45.412Z,19.85
2023-04-18T01:28:47.122Z,23.60
2023-04-18T01:29:48.810Z,18.30
2023-04-18T01:30:50.603Z,21.20
2023-04-18T01:31:52.465Z,18.85
2023-04-18T01:32:54.542Z,19.02
2023-04-18T01:33:56.402Z,21.45
2023-04-18T01:34:58.096Z,17.85
2023-04-18T01:35:59.797Z,18.55
2023-04-18T01:37:01.582Z,23.10
2023-04-18T01:38:03.656Z,22.75
2023-04-18T01:39:05.560Z,19.98
2023-04-18T01:40:07.952Z,19.52
2023-04-18T01:41:09.676Z,18.63
2023-04-18T01:42:11.452Z,21.95
2023-04-18T01:43:13.211Z,17.67
2023-04-18T01:44:15.073Z,17.17
2023-04-18T01:45:17.663Z,17.35
2023-04-18T01:46:19.813Z,17.67
2023-04-18T01:47:21.599Z,18.25
2023-04-18T01:48:23.322Z,19.20
2023-04-18T01:49:25.020Z,14.20
2023-04-18T01:50:26.742Z,14.00
2023-04-18T01:51:28.527Z,16.70
2023-04-18T01:52:30.459Z,19.38
2023-04-18T01:53:32.407Z,17.90
2023-04-18T01:54:34.091Z,18.42
2023-04-18T01:55:35.971Z,14.73
2023-04-18T01:56:37.682Z,17.55
2023-04-18T01:57:39.360Z,17.23
2023-04-18T01:58:41.822Z,20.40
2023-04-18T01:59:43.550Z,14.73
2023-04-18T02:00:45.503Z,22.00
2023-04-18T02:01:47.256Z,19.92
2023-04-18T02:02:50.557Z,27.75
2023-04-18T02:03:52.940Z,23.98
2023-04-18T02:04:54.877Z,19.35
2023-04-18T02:05:56.610Z,21.52
2023-04-18T02:06:58.302Z,19.52
2023-04-18T02:07:59.991Z,20.35
2023-04-18T02:09:01.788Z,20.73
2023-04-18T02:10:04.039Z,20.58
2023-04-18T02:11:06.049Z,17.88
2023-04-18T02:12:07.809Z,20.02
2023-04-18T02:13:09.745Z,19.75
2023-04-18T02:14:11.865Z,21.35
2023-04-18T02:15:13.772Z,16.80
2023-04-18T02:16:15.539Z,17.55
2023-04-18T02:17:17.327Z,17.02
2023-04-18T02:18:19.034Z,15.77
2023-04-18T02:19:20.776Z,15.07
2023-04-18T02:20:22.780Z,16.98
2023-04-18T02:21:24.561Z,11.57
2023-04-18T02:22:26.264Z,12.60
2023-04-18T02:23:27.944Z,11.35
2023-04-18T02:24:29.690Z,11.00
2023-04-18T02:25:31.431Z,16.02
2023-04-18T02:26:33.149Z,15.70
2023-04-18T02:27:34.893Z,12.38
2023-04-18T02:28:39.251Z,12.23
2023-04-18T02:29:41.096Z,11.95
2023-04-18T02:30:42.831Z,11.43
2023-04-18T02:31:44.609Z,10.20
2023-04-18T02:32:46.982Z,8.27
2023-04-18T02:33:48.776Z,13.30
2023-04-18T02:34:50.576Z,9.60
2023-04-18T02:35:52.322Z,9.13
2023-04-18T02:36:54.001Z,12.25
2023-04-18T02:37:55.694Z,8.40
2023-04-18T02:38:57.481Z,13.35
2023-04-18T02:39:59.259Z,11.25
2023-04-18T02:41:01.079Z,9.32
2023-04-18T02:42:02.794Z,11.32
2023-04-18T02:43:04.624Z,8.57
2023-04-18T02:44:07.187Z,9.95
2023-04-18T02:45:09.872Z,9.65
2023-04-18T02:46:12.000Z,8.43
2023-04-18T02:47:13.757Z,10.45
2023-04-18T02:48:15.686Z,10.05
2023-04-18T02:49:17.398Z,8.38
2023-04-18T02:50:19.264Z,8.05
2023-04-18T02:51:20.988Z,9.82
2023-04-18T02:52:22.984Z,11.10
2023-04-18T02:53:25.209Z,10.57
2023-04-18T02:54:26.970Z,7.53
2023-04-18T02:55:28.719Z,13.85
2023-04-18T02:56:30.412Z,12.15
2023-04-18T02:57:32.142Z,12.35
2023-04-18T02:58:35.954Z,11.15
2023-04-18T02:59:37.638Z,11.35
2023-04-18T03:00:39.366Z,11.23
2023-04-18T03:01:41.143Z,9.95
2023-04-18T03:02:43.016Z,9.25
2023-04-18T03:03:44.826Z,9.55
2023-04-18T03:04:46.588Z,8.85
2023-04-18T03:05:48.617Z,7.82
2023-04-18T03:06:50.402Z,7.93
2023-04-18T03:07:52.168Z,7.95
2023-04-18T03:08:55.297Z,10.50
2023-04-18T03:09:57.030Z,7.18
2023-04-18T03:10:58.811Z,8.15
2023-04-18T03:12:02.260Z,7.70
2023-04-18T03:13:03.994Z,8.60
2023-04-18T03:14:05.768Z,9.32
2023-04-18T03:15:07.948Z,6.53
2023-04-18T03:16:09.735Z,4.97
2023-04-18T03:17:11.698Z,7.18
2023-04-18T03:18:13.380Z,5.75
2023-04-18T03:19:15.116Z,5.00
2023-04-18T03:20:17.838Z,5.60
2023-04-18T03:21:19.616Z,8.27
2023-04-18T03:22:21.424Z,7.40
2023-04-18T03:23:23.144Z,8.35
2023-04-18T03:24:24.850Z,6.53
2023-04-18T03:25:26.560Z,6.70
2023-04-18T03:26:28.627Z,6.10
2023-04-18T03:27:30.437Z,5.78
2023-04-18T03:28:32.180Z,8.40
2023-04-18T03:29:34.105Z,7.38
2023-04-18T03:30:36.023Z,8.00
2023-04-18T03:31:37.812Z,8.32
2023-04-18T03:32:39.577Z,7.53
2023-04-18T03:33:42.536Z,8.55
2023-04-18T03:34:44.223Z,9.70
2023-04-18T03:35:46.667Z,8.25
2023-04-18T03:36:48.535Z,9.45
2023-04-18T03:37:50.541Z,8.13
2023-04-18T03:38:52.276Z,7.85
2023-04-18T03:39:54.109Z,12.98
2023-04-18T03:40:55.824Z,9.77
2023-04-18T03:41:57.566Z,10.20
2023-04-18T03:43:00.137Z,9.32
2023-04-18T03:44:01.848Z,12.52
2023-04-18T03:45:03.851Z,11.38
2023-04-18T03:46:05.703Z,11.80
2023-04-18T03:47:07.679Z,12.75
2023-04-18T03:48:09.366Z,12.35
2023-04-18T03:49:11.093Z,12.02
2023-04-18T03:50:12.804Z,13.05
2023-04-18T03:51:14.858Z,12.20
2023-04-18T03:52:16.623Z,11.15
2023-04-18T03:53:18.341Z,13.70
2023-04-18T03:54:20.032Z,13.98
2023-04-18T03:55:22.032Z,10.90
2023-04-18T03:56:23.796Z,10.25
2023-04-18T03:57:25.607Z,12.15
2023-04-18T03:58:27.317Z,11.65
2023-04-18T03:59:29.655Z,11.55
2023-04-18T04:00:31.496Z,12.20
2023-04-18T04:01:33.800Z,14.13
2023-04-18T04:02:35.788Z,11.73
2023-04-18T04:03:37.689Z,14.50
2023-04-18T04:04:39.566Z,14.25
2023-04-18T04:05:41.476Z,13.27
2023-04-18T04:06:43.299Z,13.32
2023-04-18T04:07:45.224Z,16.38
2023-04-18T04:08:46.927Z,13.85
2023-04-18T04:09:48.710Z,17.52
2023-04-18T04:10:50.650Z,18.27
2023-04-18T04:11:52.387Z,19.63
2023-04-18T04:12:54.094Z,13.98
2023-04-18T04:13:55.829Z,17.85
2023-04-18T04:14:57.606Z,15.65
2023-04-18T04:15:59.469Z,15.75
2023-04-18T04:17:01.372Z,22.30
2023-04-18T04:18:03.116Z,16.15
2023-04-18T04:19:05.036Z,16.73
2023-04-18T04:20:07.569Z,17.48
2023-04-18T04:21:09.282Z,18.52
2023-04-18T04:22:11.285Z,21.52
2023-04-18T04:23:12.982Z,21.20
2023-04-18T04:24:14.912Z,19.77
2023-04-18T04:25:17.530Z,22.50
2023-04-18T04:26:19.273Z,25.52
2023-04-18T04:27:20.986Z,28.27
2023-04-18T04:28:23.372Z,31.35
2023-04-18T04:29:25.122Z,32.28
2023-04-18T04:30:27.227Z,29.33
2023-04-18T04:31:29.055Z,35.10
2023-04-18T04:32:30.909Z,33.42
2023-04-18T04:33:33.423Z,33.95
2023-04-18T04:34:35.906Z,32.78
2023-04-18T04:35:40.438Z,27.27
2023-04-18T04:36:43.253Z,23.95
2023-04-18T04:37:45.282Z,23.02
2023-04-18T04:38:47.414Z,19.05
2023-04-18T04:39:49.230Z,17.00
2023-04-18T04:40:51.563Z,12.75
2023-04-18T04:41:53.665Z,15.00
2023-04-18T04:42:56.218Z,12.93
2023-04-18T04:43:57.908Z,11.38
2023-04-18T04:44:59.664Z,11.57
2023-04-18T04:46:03.967Z,12.75
2023-04-18T04:47:05.852Z,9.93
2023-04-18T04:48:08.565Z,18.02
2023-04-18T04:49:13.544Z,11.68
2023-04-18T04:50:15.940Z,13.48
2023-04-18T04:51:17.679Z,14.48
2023-04-18T04:52:19.783Z,14.10
2023-04-18T04:53:22.157Z,12.82
2023-04-18T04:54:23.917Z,14.50
2023-04-18T04:55:25.656Z,17.77
2023-04-18T04:56:27.378Z,15.88
2023-04-18T04:57:32.215Z,14.82
2023-04-18T04:58:34.380Z,14.15
2023-04-18T04:59:36.327Z,18.17
2023-04-18T05:00:38.048Z,18.42
2023-04-18T05:01:48.205Z,17.95
2023-04-18T05:02:53.688Z,18.60
2023-04-18T05:03:55.862Z,19.88
2023-04-18T05:04:57.626Z,18.60
2023-04-18T05:06:00.154Z,24.98
2023-04-18T05:07:01.994Z,24.23
2023-04-18T05:08:04.130Z,19.00
2023-04-18T05:09:05.824Z,26.10
2023-04-18T05:10:07.886Z,21.10
2023-04-18T05:11:09.587Z,23.50
2023-04-18T05:12:11.349Z,21.67
2023-04-18T05:13:13.168Z,18.42
2023-04-18T05:14:16.112Z,20.98
2023-04-18T05:15:18.617Z,20.35
2023-04-18T05:16:20.967Z,18.98
2023-04-18T05:17:23.032Z,22.85
2023-04-18T05:18:24.868Z,18.65
2023-04-18T05:19:26.590Z,20.15
2023-04-18T05:20:28.411Z,19.65
2023-04-18T05:21:30.204Z,15.85
2023-04-18T05:22:32.543Z,17.25
2023-04-18T05:23:37.635Z,16.20
2023-04-18T05:24:39.670Z,14.48
2023-04-18T05:25:41.629Z,16.13
2023-04-18T05:26:43.509Z,14.32
2023-04-18T05:27:47.165Z,15.85
2023-04-18T05:28:49.272Z,15.18
2023-04-18T05:29:51.064Z,18.08
2023-04-18T05:30:52.885Z,14.32
2023-04-18T05:32:00.324Z,14.23
2023-04-18T05:33:02.420Z,15.77
2023-04-18T05:34:04.278Z,12.77
2023-04-18T05:35:07.210Z,13.73
2023-04-18T05:36:09.093Z,11.85
2023-04-18T05:37:10.921Z,11.60
2023-04-18T05:38:12.675Z,11.98
2023-04-18T05:39:14.422Z,15.80
2023-04-18T05:40:16.261Z,13.18
2023-04-18T05:41:17.963Z,14.63
2023-04-18T05:42:19.670Z,10.32
2023-04-18T05:43:22.164Z,14.98
2023-04-18T05:44:24.453Z,13.30
2023-04-18T05:45:26.267Z,16.30
2023-04-18T05:46:28.048Z,16.40
2023-04-18T05:47:30.508Z,13.48
2023-04-18T05:48:32.263Z,14.63
2023-04-18T05:49:33.994Z,17.55
2023-04-18T05:50:35.712Z,13.10
2023-04-18T05:51:37.591Z,14.43
2023-04-18T05:52:39.344Z,17.00
2023-04-18T05:53:41.062Z,13.10
2023-04-18T05:54:42.779Z,14.65
2023-04-18T05:55:46.593Z,12.30
2023-04-18T05:56:48.458Z,16.05
2023-04-18T05:57:50.177Z,12.68
2023-04-18T05:58:52.049Z,14.70
2023-04-18T05:59:53.764Z,11.93
2023-04-18T06:00:57.971Z,13.20
2023-04-18T06:01:59.695Z,14.27
2023-04-18T06:03:01.638Z,14.85
2023-04-18T06:04:03.788Z,12.27
2023-04-18T06:05:06.627Z,10.32
2023-04-18T06:06:08.765Z,12.27
2023-04-18T06:07:10.868Z,10.70
2023-04-18T06:08:12.669Z,11.30
2023-04-18T06:09:14.428Z,12.15
2023-04-18T06:10:16.371Z,12.18
2023-04-18T06:11:20.262Z,12.18
2023-04-18T06:12:22.020Z,12.43
2023-04-18T06:13:23.796Z,13.38
2023-04-18T06:14:26.256Z,14.15
2023-04-18T06:15:28.111Z,14.68
2023-04-18T06:16:29.935Z,14.73
2023-04-18T06:17:31.816Z,13.43
2023-04-18T06:18:34.176Z,12.73
2023-04-18T06:19:36.239Z,14.70
2023-04-18T06:20:38.019Z,13.15
2023-04-18T06:21:42.111Z,14.73
2023-04-18T06:22:43.840Z,12.20
2023-04-18T06:23:45.568Z,11.02
2023-04-18T06:24:47.302Z,11.45
2023-04-18T06:25:49.058Z,12.75
2023-04-18T06:26:50.947Z,13.05
2023-04-18T06:27:52.696Z,14.65
2023-04-18T06:28:54.474Z,12.20
2023-04-18T06:29:56.540Z,12.55
2023-04-18T06:30:58.268Z,11.70
2023-04-18T06:32:00.326Z,13.88
2023-04-18T06:33:02.274Z,13.57
2023-04-18T06:34:04.056Z,15.95
2023-04-18T06:35:06.349Z,13.25
2023-04-18T06:36:09.069Z,11.98
2023-04-18T06:37:11.705Z,13.02
2023-04-18T06:38:13.636Z,12.93
2023-04-18T06:39:15.380Z,13.55
2023-04-18T06:40:17.299Z,14.02
2023-04-18T06:41:19.080Z,13.15
2023-04-18T06:42:22.468Z,15.05
2023-04-18T06:43:24.630Z,17.40
2023-04-18T06:44:26.441Z,18.05
2023-04-18T06:45:30.811Z,17.80
2023-04-18T06:46:33.286Z,16.98
2023-04-18T06:47:35.094Z,19.13
2023-04-18T06:48:39.840Z,21.73
2023-04-18T06:49:41.534Z,21.55
2023-04-18T06:50:44.010Z,17.13
2023-04-18T06:51:46.171Z,20.25
2023-04-18T06:52:47.902Z,16.42
2023-04-18T06:53:52.837Z,17.65
2023-04-18T06:54:54.981Z,21.58
2023-04-18T06:55:56.810Z,18.40
2023-04-18T06:56:59.246Z,17.52
2023-04-18T06:58:00.944Z,16.98
2023-04-18T06:59:02.686Z,19.77
2023-04-18T07:00:05.639Z,20.00
2023-04-18T07:01:07.543Z,17.33
2023-04-18T07:02:09.387Z,20.50
2023-04-18T07:03:13.583Z,17.25
2023-04-18T07:04:15.861Z,13.70
2023-04-18T07:05:17.948Z,16.27
2023-04-18T07:06:19.674Z,14.27
2023-04-18T07:07:21.516Z,16.92
2023-04-18T07:08:23.261Z,18.92
2023-04-18T07:09:25.043Z,18.35
2023-04-18T07:10:26.746Z,15.48
2023-04-18T07:11:28.923Z,11.95
2023-04-18T07:12:30.664Z,17.40
2023-04-18T07:13:32.440Z,13.13
2023-04-18T07:14:34.400Z,14.48
2023-04-18T07:15:36.356Z,17.92
2023-04-18T07:16:38.618Z,17.55
2023-04-18T07:17:40.579Z,16.27
2023-04-18T07:18:42.289Z,18.17
2023-04-18T07:19:44.580Z,11.25
2023-04-18T07:20:46.323Z,10.48
2023-04-18T07:21:48.090Z,12.48
2023-04-18T07:22:49.789Z,13.68
2023-04-18T07:23:51.547Z,12.25
2023-04-18T07:24:53.293Z,12.40
2023-04-18T07:25:55.129Z,10.88
2023-04-18T07:26:57.075Z,15.75
2023-04-18T07:27:58.806Z,19.98
2023-04-18T07:29:00.684Z,14.55
2023-04-18T07:30:05.639Z,16.02
2023-04-18T07:31:11.727Z,13.88
2023-04-18T07:32:13.635Z,14.10
2023-04-18T07:33:15.399Z,18.02
2023-04-18T07:34:17.988Z,16.58
2023-04-18T07:35:19.736Z,19.58
2023-04-18T07:36:21.817Z,14.57
2023-04-18T07:37:23.772Z,15.20
2023-04-18T07:38:25.696Z,18.17
2023-04-18T07:39:27.504Z,18.73
2023-04-18T07:40:29.236Z,18.08
2023-04-18T07:41:31.287Z,16.05
2023-04-18T07:42:33.139Z,21.45
2023-04-18T07:43:34.950Z,19.48
2023-04-18T07:44:39.698Z,15.48
2023-04-18T07:45:43.422Z,16.35
2023-04-18T07:46:45.451Z,18.02
2023-04-18T07:47:47.250Z,15.20
2023-04-18T07:48:49.017Z,13.20
2023-04-18T07:49:50.977Z,14.43
2023-04-18T07:50:53.440Z,13.07
2023-04-18T07:51:56.488Z,14.27
2023-04-18T07:52:58.215Z,14.63
2023-04-18T07:53:59.937Z,19.00
2023-04-18T07:55:01.710Z,16.67
2023-04-18T07:56:03.485Z,21.33
2023-04-18T07:57:05.268Z,18.73
2023-04-18T07:58:06.978Z,16.42
2023-04-18T07:59:08.692Z,18.02
2023-04-18T08:00:12.604Z,20.33
2023-04-18T08:01:15.482Z,19.88
2023-04-18T08:02:17.241Z,15.52
2023-04-18T08:03:19.373Z,19.02
2023-04-18T08:04:21.608Z,18.13
2023-04-18T08:05:23.466Z,20.85
2023-04-18T08:06:26.466Z,16.38
2023-04-18T08:07:28.297Z,16.17
2023-04-18T08:08:30.060Z,17.85
2023-04-18T08:09:31.815Z,17.63
2023-04-18T08:10:34.264Z,14.95
2023-04-18T08:11:36.122Z,15.10
2023-04-18T08:12:37.991Z,14.73
2023-04-18T08:13:39.704Z,16.45
2023-04-18T08:14:41.848Z,15.98
2023-04-18T08:15:43.680Z,16.05
2023-04-18T08:16:46.673Z,16.58
2023-04-18T08:17:49.268Z,15.15
2023-04-18T08:18:51.050Z,15.38
2023-04-18T08:19:52.771Z,14.82
2023-04-18T08:20:54.517Z,14.30
2023-04-18T08:22:08.516Z,17.75
2023-04-18T08:23:12.775Z,14.82
2023-04-18T08:24:14.966Z,14.00
2023-04-18T08:25:17.094Z,14.10
2023-04-18T08:26:22.215Z,18.88
2023-04-18T08:27:23.941Z,17.35
2023-04-18T08:28:25.862Z,15.15
2023-04-18T08:29:27.604Z,15.93
2023-04-18T08:30:29.571Z,15.60
2023-04-18T08:31:31.885Z,14.38
2023-04-18T08:32:33.889Z,14.18
2023-04-18T08:33:35.841Z,14.15
2023-04-18T08:34:38.246Z,14.68
2023-04-18T08:35:40.064Z,14.10
2023-04-18T08:36:41.769Z,14.73
2023-04-18T08:39:14.655Z,13.70
2023-04-18T08:40:16.892Z,13.90
2023-04-18T08:41:22.122Z,14.65
2023-04-18T08:42:23.963Z,13.30
2023-04-18T08:43:25.608Z,15.27
2023-04-18T08:44:30.664Z,18.63
2023-04-18T08:45:33.479Z,15.00
2023-04-18T08:46:36.272Z,13.25
2023-04-18T08:47:37.935Z,13.73
2023-04-18T08:48:39.587Z,13.90
2023-04-18T08:49:41.224Z,15.75
2023-04-18T08:50:43.416Z,17.42
2023-04-18T08:51:47.480Z,14.38
2023-04-18T08:52:50.598Z,15.30
2023-04-18T08:53:53.169Z,17.40
2023-04-18T08:54:54.781Z,18.10
2023-04-18T08:55:57.345Z,16.88
2023-04-18T08:57:06.491Z,18.08
2023-04-18T08:58:08.138Z,18.35
2023-04-18T08:59:11.585Z,16.00
2023-04-18T09:00:14.003Z,17.45
2023-04-18T09:01:17.842Z,17.00
2023-04-18T09:02:22.383Z,18.63
2023-04-18T09:03:44.173Z,18.27
2023-04-18T09:04:49.321Z,19.05
2023-04-18T09:06:10.093Z,21.02
2023-04-18T09:07:17.868Z,23.58
2023-04-18T09:08:24.298Z,20.90
2023-04-18T09:09:27.605Z,23.42
2023-04-18T09:10:34.164Z,19.52
2023-04-18T09:11:35.742Z,19.90
2023-04-18T09:12:49.939Z,19.90
2023-04-18T09:13:53.217Z,22.05
2023-04-18T09:14:59.677Z,20.73
2023-04-18T09:16:01.220Z,18.65
2023-04-18T09:17:04.185Z,21.83
2023-04-18T09:18:10.403Z,19.15
2023-04-18T09:19:14.588Z,22.52
2023-04-18T09:20:30.767Z,19.27
2023-04-18T09:21:32.915Z,17.52
2023-04-18T09:22:52.181Z,23.30
2023-04-18T09:24:17.567Z,19.25
2023-04-18T09:25:43.244Z,18.08
2023-04-18T09:26:47.980Z,16.75
2023-04-18T09:27:49.637Z,19.15
2023-04-18T09:28:53.909Z,20.95
2023-04-18T09:29:57.375Z,20.85
2023-04-18T09:31:09.670Z,21.08
2023-04-18T09:32:11.528Z,21.52
2023-04-18T09:33:14.619Z,20.80
2023-04-18T09:34:25.154Z,23.70
2023-04-18T09:35:27.376Z,21.95
2023-04-18T09:36:29.233Z,25.48
2023-04-18T09:37:31.164Z,21.35
2023-04-18T09:38:44.876Z,25.65
2023-04-18T09:39:46.656Z,23.23
2023-04-18T09:41:08.052Z,21.65
2023-04-18T09:43:19.912Z,20.33
2023-04-18T09:44:21.626Z,16.08
2023-04-18T09:45:24.963Z,16.75
2023-04-18T09:46:27.948Z,22.30
2023-04-18T09:47:30.847Z,18.27
2023-04-18T09:48:32.567Z,21.67
2023-04-18T09:49:34.806Z,15.77
2023-04-18T09:50:39.233Z,16.67
2023-04-18T09:51:42.258Z,16.30
2023-04-18T09:52:46.044Z,15.25
2023-04-18T09:53:48.156Z,17.02
2023-04-18T09:54:55.604Z,17.83
2023-04-18T09:55:57.992Z,19.95
2023-04-18T09:57:02.990Z,22.35
2023-04-18T09:58:05.997Z,23.33
2023-04-18T09:59:10.074Z,20.38
2023-04-18T10:00:17.514Z,24.83
2023-04-18T10:01:19.589Z,24.13
2023-04-18T10:02:23.208Z,27.15
2023-04-18T10:03:32.859Z,22.48
2023-04-18T10:04:35.089Z,24.10
2023-04-18T10:05:40.109Z,25.63
2023-04-18T10:06:44.572Z,26.98
2023-04-18T10:07:48.095Z,27.55
2023-04-18T10:08:52.026Z,23.77
2023-04-18T10:09:53.830Z,26.13
2023-04-18T10:10:58.006Z,26.15
2023-04-18T10:12:02.472Z,24.08
2023-04-18T10:13:06.295Z,26.27
2023-04-18T10:14:12.892Z,25.40
2023-04-18T10:15:16.144Z,26.13
2023-04-18T10:16:18.323Z,26.67
2023-04-18T10:17:20.459Z,28.48
2023-04-18T10:18:25.050Z,23.80
2023-04-18T10:19:28.554Z,22.42
2023-04-18T10:20:32.005Z,24.42
2023-04-18T10:21:34.541Z,26.95
2023-04-18T10:22:36.704Z,33.80
2023-04-18T10:23:40.004Z,28.42
2023-04-18T10:24:49.776Z,30.13
2023-04-18T10:25:51.910Z,32.95
2023-04-18T10:26:53.672Z,26.95
2023-04-18T10:27:57.309Z,29.45
2023-04-18T10:28:59.569Z,31.13
2023-04-18T10:30:01.306Z,27.27
2023-04-18T10:31:04.321Z,31.15
2023-04-18T10:32:07.147Z,26.80
2023-04-18T10:33:30.355Z,26.27
2023-04-18T10:34:33.381Z,23.52
2023-04-18T10:35:36.091Z,27.00
2023-04-18T10:36:57.736Z,26.42
2023-04-18T10:38:00.154Z,25.10
2023-04-18T10:39:23.389Z,26.25
2023-04-18T10:40:34.791Z,24.80
2023-04-18T10:41:50.576Z,21.15
2023-04-18T10:42:52.758Z,25.95
2023-04-18T10:44:15.815Z,25.83
2023-04-18T10:45:24.915Z,23.20
2023-04-18T10:46:32.589Z,25.27
2023-04-18T10:47:34.923Z,27.85
2023-04-18T10:48:39.326Z,24.67
2023-04-18T10:49:54.333Z,22.58
2023-04-18T10:51:20.729Z,27.35
2023-04-18T10:52:22.547Z,23.40
2023-04-18T10:53:24.332Z,28.58
2023-04-18T10:54:28.121Z,20.45
2023-04-18T10:55:31.369Z,21.25
2023-04-18T10:56:33.173Z,22.65
2023-04-18T10:57:43.036Z,22.02
2023-04-18T10:58:52.140Z,21.83
2023-04-18T10:59:54.959Z,20.63
2023-04-18T11:00:57.076Z,19.95
2023-04-18T11:02:26.434Z,22.15
2023-04-18T11:03:33.802Z,21.98
2023-04-18T11:04:36.067Z,20.10
2023-04-18T11:05:37.875Z,23.38
2023-04-18T11:06:58.509Z,20.55
2023-04-18T11:08:00.319Z,22.75
2023-04-18T11:09:13.792Z,23.05
2023-04-18T11:10:24.619Z,25.70
2023-04-18T11:11:26.413Z,20.35
2023-04-18T11:12:32.937Z,22.77
2023-04-18T11:13:36.977Z,19.52
2023-04-18T11:14:47.722Z,20.52
2023-04-18T11:15:49.411Z,21.55
2023-04-18T11:16:51.279Z,18.77
2023-04-18T11:18:02.849Z,21.13
2023-04-18T11:19:22.012Z,22.63
2023-04-18T11:20:24.009Z,18.70
2023-04-18T11:21:30.715Z,21.27
2023-04-18T11:22:32.828Z,21.20
2023-04-18T11:23:34.674Z,20.48
2023-04-18T11:24:36.928Z,23.45
2023-04-18T11:25:40.635Z,25.08
2023-04-18T11:26:44.594Z,22.95
2023-04-18T11:27:48.170Z,23.80
2023-04-18T11:28:59.181Z,18.63
2023-04-18T11:30:00.966Z,25.13
2023-04-18T11:31:03.189Z,24.75
2023-04-18T11:32:09.431Z,24.10
2023-04-18T11:33:12.650Z,27.63
2023-04-18T11:34:14.722Z,33.00
2023-04-18T11:35:16.645Z,25.45
2023-04-18T11:36:18.458Z,31.10
2023-04-18T11:37:20.945Z,28.35
2023-04-18T11:38:28.908Z,28.02
2023-04-18T11:39:34.854Z,25.77
2023-04-18T11:40:39.871Z,24.05
2023-04-18T11:41:41.997Z,23.95
2023-04-18T11:42:43.802Z,28.60
2023-04-18T11:43:46.651Z,23.50
2023-04-18T11:44:49.350Z,23.45
2023-04-18T11:45:59.939Z,26.30
2023-04-18T11:47:01.737Z,25.00
2023-04-18T11:48:03.585Z,25.35
2023-04-18T11:49:05.577Z,25.25
2023-04-18T11:50:08.892Z,27.00
2023-04-18T11:51:35.687Z,25.13
2023-04-18T11:52:38.463Z,25.92
2023-04-18T11:53:40.228Z,25.65
2023-04-18T11:54:44.134Z,27.42
2023-04-18T11:55:55.955Z,26.02
2023-04-18T11:56:57.847Z,33.67
2023-04-18T11:58:01.444Z,28.90
2023-04-18T11:59:09.803Z,29.80
2023-04-18T12:00:12.677Z,33.20
2023-04-18T12:01:21.253Z,54.67
2023-04-18T12:02:24.696Z,43.50
2023-04-18T12:03:29.282Z,49.17
2023-04-18T12:05:00.265Z,35.65
2023-04-18T12:06:02.548Z,20.75
2023-04-18T12:07:05.008Z,20.33
2023-04-18T12:08:17.387Z,21.38
2023-04-18T12:09:21.358Z,22.88
2023-04-18T12:10:24.511Z,23.35
2023-04-18T12:11:26.294Z,27.88
2023-04-18T12:12:28.031Z,29.75
2023-04-18T12:13:33.172Z,30.80
2023-04-18T12:14:36.024Z,34.70
2023-04-18T12:15:40.691Z,26.77
2023-04-18T12:16:42.428Z,20.75
2023-04-18T12:17:45.556Z,23.90
2023-04-18T12:18:49.444Z,22.40
2023-04-18T12:19:53.633Z,21.10
2023-04-18T12:20:55.406Z,23.35
2023-04-18T12:22:01.510Z,19.33
2023-04-18T12:23:03.789Z,21.15
2023-04-18T12:24:18.339Z,22.30
2023-04-18T12:25:27.552Z,20.52
2023-04-18T12:26:29.644Z,21.15
2023-04-18T12:28:01.371Z,17.27
2023-04-18T12:29:03.067Z,17.15
2023-04-18T12:30:05.189Z,19.45
2023-04-18T12:31:07.519Z,17.33
2023-04-18T12:32:09.329Z,19.17
2023-04-18T12:33:11.652Z,19.63
2023-04-18T12:34:16.210Z,18.58
2023-04-18T12:35:21.648Z,19.08
2023-04-18T12:36:23.594Z,16.92
2023-04-18T12:37:25.735Z,17.75
2023-04-18T12:38:27.684Z,22.58
2023-04-18T12:39:29.378Z,19.33
2023-04-18T12:40:31.222Z,20.33
2023-04-18T12:41:32.986Z,19.33
2023-04-18T12:42:34.712Z,23.20
2023-04-18T12:43:36.403Z,19.83
2023-04-18T12:44:38.080Z,19.83
2023-04-18T12:45:39.824Z,18.23
2023-04-18T12:46:41.648Z,19.45
2023-04-18T12:47:45.848Z,17.02
2023-04-18T12:48:47.630Z,18.23
2023-04-18T12:49:49.302Z,18.60
2023-04-18T12:50:51.091Z,19.23
2023-04-18T12:51:52.791Z,16.50
2023-04-18T12:52:55.751Z,18.98
2023-04-18T12:53:57.435Z,21.88
2023-04-18T12:54:59.258Z,16.08
2023-04-18T12:56:01.070Z,15.90
2023-04-18T12:57:03.400Z,17.45
2023-04-18T12:58:05.127Z,17.50
2023-04-18T12:59:06.845Z,20.52
2023-04-18T13:00:13.170Z,20.80
2023-04-18T13:01:15.602Z,18.58
2023-04-18T13:02:17.515Z,17.10
2023-04-18T13:03:19.506Z,18.60
2023-04-18T13:04:21.775Z,16.10
2023-04-18T13:05:27.311Z,16.67
2023-04-18T13:06:30.872Z,21.00
2023-04-18T13:07:33.161Z,21.75
2023-04-18T13:08:35.070Z,21.13
2023-04-18T13:09:36.791Z,20.00
2023-04-18T13:10:38.514Z,20.63
2023-04-18T13:11:40.327Z,25.25
2023-04-18T13:12:42.147Z,26.05
2023-04-18T13:13:43.833Z,26.75
2023-04-18T13:14:46.668Z,31.90
2023-04-18T13:15:48.431Z,29.05
2023-04-18T13:16:50.422Z,26.95
2023-04-18T13:17:52.110Z,24.10
2023-04-18T13:18:53.840Z,28.27
2023-04-18T13:19:56.817Z,26.13
2023-04-18T13:20:58.518Z,23.23
2023-04-18T13:22:01.338Z,22.10
2023-04-18T13:23:03.343Z,25.10
2023-04-18T13:24:05.463Z,22.38
2023-04-18T13:25:08.452Z,27.60
2023-04-18T13:26:11.872Z,21.95
2023-04-18T13:27:16.448Z,25.80
2023-04-18T13:28:18.138Z,29.92
2023-04-18T13:29:19.812Z,28.00
2023-04-18T13:30:21.545Z,28.95
2023-04-18T13:31:23.322Z,29.10
2023-04-18T13:32:25.893Z,28.30
2023-04-18T13:33:27.612Z,26.60
2023-04-18T13:34:29.698Z,27.60
2023-04-18T13:35:31.447Z,31.48
2023-04-18T13:36:37.386Z,34.65
2023-04-18T13:37:39.932Z,26.85
2023-04-18T13:38:41.669Z,31.73